Whitehead, United Kingdom
Current Conditions -  °F | °C
As of 10:20 AM on Thursday 27 Nov 2014 (Local Time) from EGAC Reporting Station
Rain Showers Rain Showers  
Wind Chill: 43°   Ceiling: 4800
Heat Index: 43°   Visibility: 6mi
Dew Point: 41°   Wind: 0mph
Humidity: 93%   Direction: NA
Pressure: 29.56"   Gusts: NA
Location:  54.75°N, 5.71°W
Report Text: EGAC 271020Z 00000KT 9999 VCSH FEW005 SCT027 BKN048 06/05 Q1001
Loading
Personal Weather Stations






























Interactive Weather Map New forecast layout! Learn more

10-Day Weather Forecast

Advertisements
Track Severe Weather on mobile